sensor_id;sensor_type;location;lat;lon;timestamp;pressure;altitude;pressure_sealevel;temperature;humidity
77639;BME280;66802;52.574;14.398;2023-08-07T03:00:40;100220.50;;;13.60;90.94
77639;BME280;66802;52.574;14.398;2023-08-07T03:03:05;100214.03;;;13.61;91.21
77639;BME280;66802;52.574;14.398;2023-08-07T03:05:31;100217.78;;;13.60;91.62
77639;BME280;66802;52.574;14.398;2023-08-07T03:07:56;100212.34;;;13.60;91.81
77639;BME280;66802;52.574;14.398;2023-08-07T03:10:22;100216.28;;;13.58;91.93
77639;BME280;66802;52.574;14.398;2023-08-07T03:12:47;100209.25;;;13.63;91.46
77639;BME280;66802;52.574;14.398;2023-08-07T03:15:13;100204.88;;;13.62;91.44
77639;BME280;66802;52.574;14.398;2023-08-07T03:17:39;100202.34;;;13.61;91.41
77639;BME280;66802;52.574;14.398;2023-08-07T03:20:04;100202.53;;;13.59;91.46
77639;BME280;66802;52.574;14.398;2023-08-07T03:22:30;100195.41;;;13.58;91.43
77639;BME280;66802;52.574;14.398;2023-08-07T03:24:55;100189.16;;;13.58;91.59
77639;BME280;66802;52.574;14.398;2023-08-07T03:27:21;100204.59;;;13.57;91.62
77639;BME280;66802;52.574;14.398;2023-08-07T03:29:47;100200.19;;;13.56;91.51
77639;BME280;66802;52.574;14.398;2023-08-07T03:32:12;100201.22;;;13.55;91.47
77639;BME280;66802;52.574;14.398;2023-08-07T03:34:56;100202.22;;;13.54;91.54
77639;BME280;66802;52.574;14.398;2023-08-07T03:37:21;100208.50;;;13.55;91.40
77639;BME280;66802;52.574;14.398;2023-08-07T03:39:47;100203.91;;;13.55;91.85
77639;BME280;66802;52.574;14.398;2023-08-07T03:42:14;100205.59;;;13.56;91.54
77639;BME280;66802;52.574;14.398;2023-08-07T03:44:42;100195.59;;;13.57;91.59
77639;BME280;66802;52.574;14.398;2023-08-07T03:47:08;100202.72;;;13.58;91.49
77639;BME280;66802;52.574;14.398;2023-08-07T03:49:33;100199.16;;;13.57;91.59
77639;BME280;66802;52.574;14.398;2023-08-07T03:51:59;100202.34;;;13.61;91.89
77639;BME280;66802;52.574;14.398;2023-08-07T03:54:25;100197.59;;;13.63;91.80
77639;BME280;66802;52.574;14.398;2023-08-07T03:56:50;100198.22;;;13.65;91.71
77639;BME280;66802;52.574;14.398;2023-08-07T03:59:17;100191.56;;;13.67;91.51
77639;BME280;66802;52.574;14.398;2023-08-07T04:01:43;100179.81;;;13.60;91.87
77639;BME280;66802;52.574;14.398;2023-08-07T04:04:08;100191.56;;;13.67;91.51
77639;BME280;66802;52.574;14.398;2023-08-07T04:06:34;100197.84;;;13.68;91.46
77639;BME280;66802;52.574;14.398;2023-08-07T04:09:00;100199.44;;;13.62;92.00
77639;BME280;66802;52.574;14.398;2023-08-07T04:11:25;100200.94;;;13.65;92.24
77639;BME280;66802;52.574;14.398;2023-08-07T04:13:51;100210.56;;;13.67;92.47
77639;BME280;66802;52.574;14.398;2023-08-07T04:16:17;100197.00;;;13.67;92.98
77639;BME280;66802;52.574;14.398;2023-08-07T04:18:42;100201.22;;;13.70;92.84
77639;BME280;66802;52.574;14.398;2023-08-07T04:21:08;100201.03;;;13.71;93.29
77639;BME280;66802;52.574;14.398;2023-08-07T04:23:34;100200.44;;;13.76;93.08
77639;BME280;66802;52.574;14.398;2023-08-07T04:25:59;100201.09;;;13.78;92.93
77639;BME280;66802;52.574;14.398;2023-08-07T04:28:28;100200.44;;;13.76;92.69
77639;BME280;66802;52.574;14.398;2023-08-07T04:30:53;100205.88;;;13.76;93.27
77639;BME280;66802;52.574;14.398;2023-08-07T04:33:21;100200.63;;;13.74;93.39
77639;BME280;66802;52.574;14.398;2023-08-07T04:35:47;100198.59;;;13.76;93.12
77639;BME280;66802;52.574;14.398;2023-08-07T04:38:16;100201.28;;;13.76;93.23
77639;BME280;66802;52.574;14.398;2023-08-07T04:40:49;100195.22;;;13.74;93.61
77639;BME280;66802;52.574;14.398;2023-08-07T04:43:16;100198.75;;;13.75;93.85
77639;BME280;66802;52.574;14.398;2023-08-07T04:45:43;100195.88;;;13.76;93.74
77639;BME280;66802;52.574;14.398;2023-08-07T04:48:11;100192.97;;;13.78;93.86
77639;BME280;66802;52.574;14.398;2023-08-07T04:50:37;100201.94;;;13.78;93.98
77639;BME280;66802;52.574;14.398;2023-08-07T04:53:07;100190.72;;;13.81;94.58
77639;BME280;66802;52.574;14.398;2023-08-07T04:55:32;100193.03;;;13.84;94.50
77639;BME280;66802;52.574;14.398;2023-08-07T04:57:58;100201.38;;;13.98;94.74
77639;BME280;66802;52.574;14.398;2023-08-07T05:00:24;100198.28;;;14.01;94.86
77639;BME280;66802;52.574;14.398;2023-08-07T05:02:51;100204.63;;;14.08;94.50
77639;BME280;66802;52.574;14.398;2023-08-07T05:05:17;100203.41;;;14.10;94.41
77639;BME280;66802;52.574;14.398;2023-08-07T05:07:46;100213.88;;;14.13;93.89
77639;BME280;66802;52.574;14.398;2023-08-07T05:10:12;100216.41;;;14.15;94.14
77639;BME280;66802;52.574;14.398;2023-08-07T05:12:37;100214.81;;;14.20;94.46
77639;BME280;66802;52.574;14.398;2023-08-07T05:15:03;100210.94;;;14.30;94.96
77639;BME280;66802;52.574;14.398;2023-08-07T05:17:29;100207.94;;;14.39;94.79
77639;BME280;66802;52.574;14.398;2023-08-07T05:19:54;100215.41;;;14.52;94.74
77639;BME280;66802;52.574;14.398;2023-08-07T05:22:20;100215.72;;;14.64;94.40
77639;BME280;66802;52.574;14.398;2023-08-07T05:24:45;100221.69;;;14.74;93.64
77639;BME280;66802;52.574;14.398;2023-08-07T05:27:11;100222.19;;;14.84;93.95
77639;BME280;66802;52.574;14.398;2023-08-07T05:29:37;100227.50;;;14.92;93.47
77639;BME280;66802;52.574;14.398;2023-08-07T05:32:09;100226.91;;;14.96;92.83
77639;BME280;66802;52.574;14.398;2023-08-07T05:34:35;100234.50;;;15.01;92.68
77639;BME280;66802;52.574;14.398;2023-08-07T05:37:01;100239.78;;;15.09;92.24
77639;BME280;66802;52.574;14.398;2023-08-07T05:39:26;100247.38;;;15.14;91.75
77639;BME280;66802;52.574;14.398;2023-08-07T05:41:52;100239.25;;;15.20;92.19
77639;BME280;66802;52.574;14.398;2023-08-07T05:44:20;100235.34;;;15.29;91.02
77639;BME280;66802;52.574;14.398;2023-08-07T05:46:46;100237.69;;;15.32;90.12
77639;BME280;66802;52.574;14.398;2023-08-07T05:49:11;100234.31;;;15.30;89.72
77639;BME280;66802;52.574;14.398;2023-08-07T05:51:37;100237.03;;;15.30;89.44
77639;BME280;66802;52.574;14.398;2023-08-07T05:54:02;100237.03;;;15.30;87.42
77639;BME280;66802;52.574;14.398;2023-08-07T05:56:28;100243.69;;;15.28;88.05
77639;BME280;66802;52.574;14.398;2023-08-07T05:58:53;100245.56;;;15.27;87.90
77639;BME280;66802;52.574;14.398;2023-08-07T06:01:19;100247.03;;;15.23;87.79
77639;BME280;66802;52.574;14.398;2023-08-07T06:03:44;100252.84;;;15.20;86.56
77639;BME280;66802;52.574;14.398;2023-08-07T06:06:10;100251.16;;;15.19;87.22
77639;BME280;66802;52.574;14.398;2023-08-07T06:08:35;100253.22;;;15.17;87.83
77639;BME280;66802;52.574;14.398;2023-08-07T06:11:01;100247.78;;;15.17;87.69
77639;BME280;66802;52.574;14.398;2023-08-07T06:13:29;100250.50;;;15.17;86.88
77639;BME280;66802;52.574;14.398;2023-08-07T06:15:54;100251.16;;;15.19;86.72
77639;BME280;66802;52.574;14.398;2023-08-07T06:18:20;100250.78;;;15.22;86.67
77639;BME280;66802;52.574;14.398;2023-08-07T06:20:45;100251.22;;;15.26;87.67
77639;BME280;66802;52.574;14.398;2023-08-07T06:23:12;100252.69;;;15.28;87.21
77639;BME280;66802;52.574;14.398;2023-08-07T06:25:38;100246.88;;;15.31;87.60
77639;BME280;66802;52.574;14.398;2023-08-07T06:28:03;100256.13;;;15.37;87.88
77639;BME280;66802;52.574;14.398;2023-08-07T06:30:31;100261.81;;;15.42;85.91
77639;BME280;66802;52.574;14.398;2023-08-07T06:32:56;100255.16;;;15.45;84.57
77639;BME280;66802;52.574;14.398;2023-08-07T06:35:22;100258.72;;;15.45;84.39
77639;BME280;66802;52.574;14.398;2023-08-07T06:37:48;100267.28;;;15.49;85.40
77639;BME280;66802;52.574;14.398;2023-08-07T06:40:13;100272.16;;;15.53;85.20
77639;BME280;66802;52.574;14.398;2023-08-07T06:42:39;100265.56;;;15.62;85.23
77639;BME280;66802;52.574;14.398;2023-08-07T06:45:05;100271.75;;;15.78;83.84
77639;BME280;66802;52.574;14.398;2023-08-07T06:47:32;100270.91;;;15.84;83.44
77639;BME280;66802;52.574;14.398;2023-08-07T06:49:57;100279.94;;;15.84;83.05
77639;BME280;66802;52.574;14.398;2023-08-07T06:52:23;100277.41;;;15.83;83.02
77639;BME280;66802;52.574;14.398;2023-08-07T06:54:48;100283.47;;;15.78;83.11
77639;BME280;66802;52.574;14.398;2023-08-07T06:57:14;100281.53;;;15.72;82.92
77639;BME280;66802;52.574;14.398;2023-08-07T06:59:40;100279.00;;;15.70;81.90
77639;BME280;66802;52.574;14.398;2023-08-07T07:02:06;100287.63;;;15.74;83.07
77639;BME280;66802;52.574;14.398;2023-08-07T07:04:31;100283.31;;;15.86;83.35
77639;BME280;66802;52.574;14.398;2023-08-07T07:06:58;100292.53;;;15.92;80.90
77639;BME280;66802;52.574;14.398;2023-08-07T07:09:24;100298.03;;;15.98;80.34
77639;BME280;66802;52.574;14.398;2023-08-07T07:11:50;100296.19;;;16.05;82.65
77639;BME280;66802;52.574;14.398;2023-08-07T07:14:15;100287.81;;;16.07;80.63
77639;BME280;66802;52.574;14.398;2023-08-07T07:16:41;100294.31;;;16.06;80.06
77639;BME280;66802;52.574;14.398;2023-08-07T07:19:07;100305.59;;;16.03;78.78
77639;BME280;66802;52.574;14.398;2023-08-07T07:21:35;100299.72;;;15.99;79.31
77639;BME280;66802;52.574;14.398;2023-08-07T07:24:02;100300.13;;;16.03;79.89
77639;BME280;66802;52.574;14.398;2023-08-07T07:26:27;100303.97;;;16.09;80.73
77639;BME280;66802;52.574;14.398;2023-08-07T07:28:53;100310.28;;;16.16;80.22
77639;BME280;66802;52.574;14.398;2023-08-07T07:31:18;100302.75;;;16.18;76.91
77639;BME280;66802;52.574;14.398;2023-08-07T07:33:44;100312.81;;;16.24;78.17
77639;BME280;66802;52.574;14.398;2023-08-07T07:36:15;100312.03;;;16.30;76.91
77639;BME280;66802;52.574;14.398;2023-08-07T07:38:40;100319.19;;;16.37;77.61
77639;BME280;66802;52.574;14.398;2023-08-07T07:41:06;100312.56;;;16.53;78.61
77639;BME280;66802;52.574;14.398;2023-08-07T07:43:35;100327.09;;;16.67;77.28
77639;BME280;66802;52.574;14.398;2023-08-07T07:46:01;100332.34;;;16.68;74.59
77639;BME280;66802;52.574;14.398;2023-08-07T07:48:26;100318.88;;;16.60;72.72
77639;BME280;66802;52.574;14.398;2023-08-07T07:50:58;100340.50;;;16.62;74.56
77639;BME280;66802;52.574;14.398;2023-08-07T07:53:24;100342.59;;;16.66;75.37
77639;BME280;66802;52.574;14.398;2023-08-07T07:55:49;100347.69;;;16.76;75.35
77639;BME280;66802;52.574;14.398;2023-08-07T07:58:15;100341.81;;;16.79;74.06
77639;BME280;66802;52.574;14.398;2023-08-07T08:00:40;100350.44;;;16.83;74.64
77639;BME280;66802;52.574;14.398;2023-08-07T08:03:06;100348.34;;;16.85;75.18
77639;BME280;66802;52.574;14.398;2023-08-07T08:05:31;100339.34;;;16.84;75.05
77639;BME280;66802;52.574;14.398;2023-08-07T08:07:57;100346.63;;;16.77;73.61
77639;BME280;66802;52.574;14.398;2023-08-07T08:10:22;100355.44;;;16.72;74.73
77639;BME280;66802;52.574;14.398;2023-08-07T08:12:48;100359.19;;;16.71;74.12
77639;BME280;66802;52.574;14.398;2023-08-07T08:15:14;100357.06;;;16.67;73.87
77639;BME280;66802;52.574;14.398;2023-08-07T08:17:39;100366.94;;;16.68;73.94
77639;BME280;66802;52.574;14.398;2023-08-07T08:20:06;100370.31;;;16.70;75.15
77639;BME280;66802;52.574;14.398;2023-08-07T08:22:32;100370.56;;;16.75;74.49
77639;BME280;66802;52.574;14.398;2023-08-07T08:24:58;100356.50;;;16.78;74.00
77639;BME280;66802;52.574;14.398;2023-08-07T08:27:24;100368.47;;;16.84;74.13
77639;BME280;66802;52.574;14.398;2023-08-07T08:29:50;100373.53;;;16.87;73.36
77639;BME280;66802;52.574;14.398;2023-08-07T08:32:16;100377.56;;;16.97;74.84
77639;BME280;66802;52.574;14.398;2023-08-07T08:34:41;100373.34;;;17.01;72.37
77639;BME280;66802;52.574;14.398;2023-08-07T08:37:07;100372.56;;;17.07;73.02
77639;BME280;66802;52.574;14.398;2023-08-07T08:39:33;100375.03;;;17.09;73.40
77639;BME280;66802;52.574;14.398;2023-08-07T08:41:59;100380.31;;;17.10;71.93
77639;BME280;66802;52.574;14.398;2023-08-07T08:44:26;100381.38;;;17.16;73.37
77639;BME280;66802;52.574;14.398;2023-08-07T08:46:54;100383.69;;;17.19;73.36
77639;BME280;66802;52.574;14.398;2023-08-07T08:49:30;100376.56;;;17.25;71.96
77639;BME280;66802;52.574;14.398;2023-08-07T08:51:58;100374.88;;;17.17;70.53
77639;BME280;66802;52.574;14.398;2023-08-07T08:54:25;100382.81;;;17.12;70.82
77639;BME280;66802;52.574;14.398;2023-08-07T08:56:52;100394.38;;;17.14;71.21
77639;BME280;66802;52.574;14.398;2023-08-07T08:59:18;100403.00;;;17.18;71.88
77639;BME280;66802;52.574;14.398;2023-08-07T09:01:46;100399.22;;;17.19;69.85
77639;BME280;66802;52.574;14.398;2023-08-07T09:04:13;100400.47;;;17.16;70.15
77639;BME280;66802;52.574;14.398;2023-08-07T09:06:40;100391.25;;;17.17;71.62
77639;BME280;66802;52.574;14.398;2023-08-07T09:09:08;100392.28;;;17.16;70.35
77639;BME280;66802;52.574;14.398;2023-08-07T09:11:36;100389.97;;;17.13;70.79
77639;BME280;66802;52.574;14.398;2023-08-07T09:14:02;100396.91;;;17.15;70.16
77639;BME280;66802;52.574;14.398;2023-08-07T09:16:30;100409.69;;;17.15;70.44
77639;BME280;66802;52.574;14.398;2023-08-07T09:18:56;100395.03;;;17.16;70.65
77639;BME280;66802;52.574;14.398;2023-08-07T09:21:21;100402.38;;;17.22;71.32
77639;BME280;66802;52.574;14.398;2023-08-07T09:23:47;100406.13;;;17.21;71.08
77639;BME280;66802;52.574;14.398;2023-08-07T09:26:12;100397.16;;;17.27;71.36
77639;BME280;66802;52.574;14.398;2023-08-07T09:28:38;100404.28;;;17.35;71.44
77639;BME280;66802;52.574;14.398;2023-08-07T09:31:06;100398.84;;;17.41;71.89
77639;BME280;66802;52.574;14.398;2023-08-07T09:33:34;100404.13;;;17.49;70.73
77639;BME280;66802;52.574;14.398;2023-08-07T09:36:01;100407.69;;;17.57;70.60
77639;BME280;66802;52.574;14.398;2023-08-07T09:38:31;100398.88;;;17.61;71.00
77639;BME280;66802;52.574;14.398;2023-08-07T09:41:00;100394.28;;;17.62;69.79
77639;BME280;66802;52.574;14.398;2023-08-07T09:43:28;100396.19;;;17.68;70.75
77639;BME280;66802;52.574;14.398;2023-08-07T09:46:02;100383.38;;;17.68;69.78
77639;BME280;66802;52.574;14.398;2023-08-07T09:48:27;100398.06;;;17.67;69.04
77639;BME280;66802;52.574;14.398;2023-08-07T09:50:54;100391.16;;;17.71;69.44
77639;BME280;66802;52.574;14.398;2023-08-07T09:53:26;100386.31;;;17.80;69.06
77639;BME280;66802;52.574;14.398;2023-08-07T09:55:56;100389.25;;;17.85;70.58
77639;BME280;66802;52.574;14.398;2023-08-07T09:58:22;100396.19;;;17.81;68.79
77639;BME280;66802;52.574;14.398;2023-08-07T10:00:48;100384.22;;;17.69;69.13
77639;BME280;66802;52.574;14.398;2023-08-07T10:03:14;100384.00;;;17.64;69.71
77639;BME280;66802;52.574;14.398;2023-08-07T10:05:41;100390.72;;;17.68;69.17
77639;BME280;66802;52.574;14.398;2023-08-07T10:08:07;100385.06;;;17.69;68.56
77639;BME280;66802;52.574;14.398;2023-08-07T10:10:33;100384.63;;;17.79;69.94
77639;BME280;66802;52.574;14.398;2023-08-07T10:13:02;100384.63;;;18.05;68.74
77639;BME280;66802;52.574;14.398;2023-08-07T10:15:29;100392.59;;;18.27;67.68
77639;BME280;66802;52.574;14.398;2023-08-07T10:17:56;100392.56;;;18.33;67.61
77639;BME280;66802;52.574;14.398;2023-08-07T10:20:22;100395.09;;;18.35;67.15
77639;BME280;66802;52.574;14.398;2023-08-07T10:22:52;100383.94;;;18.30;67.35
77639;BME280;66802;52.574;14.398;2023-08-07T10:25:21;100375.56;;;18.18;67.20
77639;BME280;66802;52.574;14.398;2023-08-07T10:27:52;100372.03;;;18.04;66.47
77639;BME280;66802;52.574;14.398;2023-08-07T10:30:21;100372.03;;;18.04;66.44
77639;BME280;66802;52.574;14.398;2023-08-07T10:32:48;100360.25;;;17.97;65.89
77639;BME280;66802;52.574;14.398;2023-08-07T10:35:31;100364.88;;;17.90;66.92
77639;BME280;66802;52.574;14.398;2023-08-07T10:38:10;100378.13;;;17.86;67.04
77639;BME280;66802;52.574;14.398;2023-08-07T10:40:58;100389.69;;;17.82;69.31
77639;BME280;66802;52.574;14.398;2023-08-07T10:43:24;100394.94;;;17.70;70.56
77639;BME280;66802;52.574;14.398;2023-08-07T10:45:50;100387.53;;;17.58;71.95
77639;BME280;66802;52.574;14.398;2023-08-07T10:48:20;100382.94;;;17.51;72.56
77639;BME280;66802;52.574;14.398;2023-08-07T10:51:02;100397.19;;;17.53;71.97
77639;BME280;66802;52.574;14.398;2023-08-07T10:53:30;100398.22;;;17.52;68.45
77639;BME280;66802;52.574;14.398;2023-08-07T10:55:57;100391.72;;;17.53;68.87
77639;BME280;66802;52.574;14.398;2023-08-07T10:58:29;100389.22;;;17.59;69.27
77639;BME280;66802;52.574;14.398;2023-08-07T11:03:52;100390.69;;;18.07;68.77
77639;BME280;66802;52.574;14.398;2023-08-07T11:06:25;100387.72;;;18.35;66.02
77639;BME280;66802;52.574;14.398;2023-08-07T11:08:56;100384.34;;;18.46;66.84
77639;BME280;66802;52.574;14.398;2023-08-07T11:11:22;100373.19;;;18.48;66.95
77639;BME280;66802;52.574;14.398;2023-08-07T11:13:47;100380.97;;;18.44;65.23
77639;BME280;66802;52.574;14.398;2023-08-07T11:16:13;100368.84;;;18.27;66.31
77639;BME280;66802;52.574;14.398;2023-08-07T11:18:39;100372.00;;;18.11;66.77
77639;BME280;66802;52.574;14.398;2023-08-07T11:21:09;100380.44;;;18.03;65.95
77639;BME280;66802;52.574;14.398;2023-08-07T11:23:41;100383.78;;;18.11;66.89
77639;BME280;66802;52.574;14.398;2023-08-07T11:26:08;100379.53;;;18.29;66.17
77639;BME280;66802;52.574;14.398;2023-08-07T11:28:34;100374.47;;;18.45;66.06
77639;BME280;66802;52.574;14.398;2023-08-07T11:31:00;100372.75;;;18.64;65.78
77639;BME280;66802;52.574;14.398;2023-08-07T11:33:28;100381.91;;;18.83;65.45
77639;BME280;66802;52.574;14.398;2023-08-07T11:35:54;100385.00;;;19.00;64.23
77639;BME280;66802;52.574;14.398;2023-08-07T11:41:00;100384.38;;;18.98;63.03
77639;BME280;66802;52.574;14.398;2023-08-07T11:43:30;100385.72;;;18.82;62.86
77639;BME280;66802;52.574;14.398;2023-08-07T11:46:01;100382.63;;;18.65;62.72
77639;BME280;66802;52.574;14.398;2023-08-07T11:48:29;100385.56;;;18.57;63.40
77639;BME280;66802;52.574;14.398;2023-08-07T11:50:57;100390.19;;;18.50;63.87
77639;BME280;66802;52.574;14.398;2023-08-07T11:53:25;100404.34;;;18.34;64.38
77639;BME280;66802;52.574;14.398;2023-08-07T11:58:51;100417.00;;;17.82;71.25
77639;BME280;66802;52.574;14.398;2023-08-07T12:01:22;100418.66;;;17.90;73.27
77639;BME280;66802;52.574;14.398;2023-08-07T12:06:24;100426.84;;;18.22;70.29
77639;BME280;66802;52.574;14.398;2023-08-07T12:08:53;100424.53;;;18.33;69.89
77639;BME280;66802;52.574;14.398;2023-08-07T12:11:19;100412.06;;;18.56;70.00
77639;BME280;66802;52.574;14.398;2023-08-07T12:13:47;100419.22;;;18.71;67.81
77639;BME280;66802;52.574;14.398;2023-08-07T12:16:14;100431.13;;;18.89;67.20
77639;BME280;66802;52.574;14.398;2023-08-07T12:18:48;100423.94;;;19.02;66.21
77639;BME280;66802;52.574;14.398;2023-08-07T12:21:18;100421.81;;;19.04;63.19
77639;BME280;66802;52.574;14.398;2023-08-07T12:23:48;100417.59;;;19.08;63.76
77639;BME280;66802;52.574;14.398;2023-08-07T12:26:14;100415.00;;;19.19;63.33
77639;BME280;66802;52.574;14.398;2023-08-07T12:28:40;100410.09;;;19.28;62.37
77639;BME280;66802;52.574;14.398;2023-08-07T12:31:06;100411.56;;;19.30;62.05
77639;BME280;66802;52.574;14.398;2023-08-07T12:33:32;100421.69;;;19.30;63.29
77639;BME280;66802;52.574;14.398;2023-08-07T12:35:59;100419.94;;;19.42;62.10
77639;BME280;66802;52.574;14.398;2023-08-07T12:38:25;100424.91;;;19.58;62.02
77639;BME280;66802;52.574;14.398;2023-08-07T12:40:51;100419.41;;;19.65;60.15
77639;BME280;66802;52.574;14.398;2023-08-07T12:43:16;100421.09;;;19.59;59.98
77639;BME280;66802;52.574;14.398;2023-08-07T12:45:43;100430.44;;;19.52;60.85
77639;BME280;66802;52.574;14.398;2023-08-07T12:48:08;100425.78;;;19.52;62.00
77639;BME280;66802;52.574;14.398;2023-08-07T12:50:34;100428.03;;;19.62;62.29
77639;BME280;66802;52.574;14.398;2023-08-07T12:53:01;100461.47;;;19.71;62.09
77639;BME280;66802;52.574;14.398;2023-08-07T12:55:27;100444.88;;;19.65;61.07
77639;BME280;66802;52.574;14.398;2023-08-07T12:57:54;100449.53;;;19.58;60.23
77639;BME280;66802;52.574;14.398;2023-08-07T13:00:20;100460.13;;;19.48;60.94
77639;BME280;66802;52.574;14.398;2023-08-07T13:02:48;100453.19;;;19.52;60.82
77639;BME280;66802;52.574;14.398;2023-08-07T13:05:14;100456.53;;;19.48;61.00
77639;BME280;66802;52.574;14.398;2023-08-07T13:07:42;100462.25;;;19.46;60.58
77639;BME280;66802;52.574;14.398;2023-08-07T13:10:11;100474.25;;;19.45;59.71
77639;BME280;66802;52.574;14.398;2023-08-07T13:12:39;100474.69;;;19.42;59.73
77639;BME280;66802;52.574;14.398;2023-08-07T13:15:08;100467.13;;;19.38;59.11
77639;BME280;66802;52.574;14.398;2023-08-07T13:17:34;100469.47;;;19.34;57.93
77639;BME280;66802;52.574;14.398;2023-08-07T13:20:01;100473.69;;;19.30;58.61
77639;BME280;66802;52.574;14.398;2023-08-07T13:22:28;100472.44;;;19.32;59.38
77639;BME280;66802;52.574;14.398;2023-08-07T13:24:54;100480.84;;;19.31;58.77
77639;BME280;66802;52.574;14.398;2023-08-07T13:27:20;100482.31;;;19.33;59.39
77639;BME280;66802;52.574;14.398;2023-08-07T13:29:46;100478.47;;;19.41;59.30
77639;BME280;66802;52.574;14.398;2023-08-07T13:32:12;100474.47;;;19.44;58.78
77639;BME280;66802;52.574;14.398;2023-08-07T13:34:38;100473.19;;;19.46;59.42
77639;BME280;66802;52.574;14.398;2023-08-07T13:37:05;100470.44;;;19.53;59.71
77639;BME280;66802;52.574;14.398;2023-08-07T13:39:31;100483.50;;;19.57;59.08
77639;BME280;66802;52.574;14.398;2023-08-07T13:41:57;100476.69;;;19.66;57.18
77639;BME280;66802;52.574;14.398;2023-08-07T13:44:23;100477.03;;;19.77;59.14
77639;BME280;66802;52.574;14.398;2023-08-07T13:46:48;100480.28;;;19.92;57.75
77639;BME280;66802;52.574;14.398;2023-08-07T13:49:14;100481.69;;;20.01;56.82
77639;BME280;66802;52.574;14.398;2023-08-07T13:51:41;100485.28;;;20.01;56.23
77639;BME280;66802;52.574;14.398;2023-08-07T13:54:07;100493.69;;;20.07;58.33
77639;BME280;66802;52.574;14.398;2023-08-07T13:56:33;100497.22;;;20.14;58.57
77639;BME280;66802;52.574;14.398;2023-08-07T13:58:59;100500.91;;;20.26;58.08
77639;BME280;66802;52.574;14.398;2023-08-07T14:01:25;100493.22;;;20.41;57.97
77639;BME280;66802;52.574;14.398;2023-08-07T14:03:51;100493.34;;;20.53;57.54
77639;BME280;66802;52.574;14.398;2023-08-07T14:06:16;100506.84;;;20.54;55.88
77639;BME280;66802;52.574;14.398;2023-08-07T14:08:42;100506.09;;;20.34;53.94
77639;BME280;66802;52.574;14.398;2023-08-07T14:11:07;100514.56;;;20.08;54.77
77639;BME280;66802;52.574;14.398;2023-08-07T14:13:33;100522.56;;;19.78;53.96
77639;BME280;66802;52.574;14.398;2023-08-07T14:15:59;100527.47;;;19.62;55.99
77639;BME280;66802;52.574;14.398;2023-08-07T14:18:24;100533.84;;;19.56;56.36
77639;BME280;66802;52.574;14.398;2023-08-07T14:20:50;100532.16;;;19.55;56.03
77639;BME280;66802;52.574;14.398;2023-08-07T14:23:15;100532.38;;;19.54;54.51
77639;BME280;66802;52.574;14.398;2023-08-07T14:25:41;100539.06;;;19.64;55.63
77639;BME280;66802;52.574;14.398;2023-08-07T14:28:06;100534.44;;;19.65;52.42
77639;BME280;66802;52.574;14.398;2023-08-07T14:30:35;100547.28;;;19.64;51.78
77639;BME280;66802;52.574;14.398;2023-08-07T14:33:00;100539.47;;;19.68;52.71
77639;BME280;66802;52.574;14.398;2023-08-07T14:35:26;100548.28;;;19.70;52.32
77639;BME280;66802;52.574;14.398;2023-08-07T14:37:51;100542.53;;;19.85;52.87
77639;BME280;66802;52.574;14.398;2023-08-07T14:40:17;100545.47;;;19.90;52.20
77639;BME280;66802;52.574;14.398;2023-08-07T14:42:42;100545.84;;;19.93;52.78
77639;BME280;66802;52.574;14.398;2023-08-07T14:45:08;100547.94;;;19.98;51.54
77639;BME280;66802;52.574;14.398;2023-08-07T14:47:34;100557.06;;;19.85;49.65
77639;BME280;66802;52.574;14.398;2023-08-07T14:49:59;100551.88;;;19.71;49.45
77639;BME280;66802;52.574;14.398;2023-08-07T14:52:25;100563.88;;;19.69;49.62
77639;BME280;66802;52.574;14.398;2023-08-07T14:54:50;100561.28;;;19.88;48.01
77639;BME280;66802;52.574;14.398;2023-08-07T14:57:18;100564.59;;;19.96;48.67
77639;BME280;66802;52.574;14.398;2023-08-07T14:59:43;100569.50;;;19.88;47.58
77639;BME280;66802;52.574;14.398;2023-08-07T15:02:09;100562.00;;;20.01;48.24
77639;BME280;66802;52.574;14.398;2023-08-07T15:04:35;100574.44;;;20.04;46.37
77639;BME280;66802;52.574;14.398;2023-08-07T15:07:00;100565.94;;;20.12;47.43
77639;BME280;66802;52.574;14.398;2023-08-07T15:09:26;100570.13;;;20.21;46.88
77639;BME280;66802;52.574;14.398;2023-08-07T15:11:52;100571.56;;;20.24;46.73
77639;BME280;66802;52.574;14.398;2023-08-07T15:14:17;100566.09;;;20.24;47.05
77639;BME280;66802;52.574;14.398;2023-08-07T15:16:43;100571.97;;;20.27;47.04
77639;BME280;66802;52.574;14.398;2023-08-07T15:19:08;100567.03;;;20.11;46.79
77639;BME280;66802;52.574;14.398;2023-08-07T15:21:34;100568.97;;;20.04;48.15
77639;BME280;66802;52.574;14.398;2023-08-07T15:23:59;100566.09;;;19.92;46.75
77639;BME280;66802;52.574;14.398;2023-08-07T15:26:25;100571.81;;;19.84;48.39
77639;BME280;66802;52.574;14.398;2023-08-07T15:28:50;100563.03;;;19.76;48.55
77639;BME280;66802;52.574;14.398;2023-08-07T15:31:16;100568.75;;;19.67;49.14
77639;BME280;66802;52.574;14.398;2023-08-07T15:33:41;100558.50;;;19.56;48.77
77639;BME280;66802;52.574;14.398;2023-08-07T15:36:09;100552.56;;;19.59;49.38
77639;BME280;66802;52.574;14.398;2023-08-07T15:38:35;100571.31;;;19.62;49.33
77639;BME280;66802;52.574;14.398;2023-08-07T15:41:01;100564.41;;;19.53;49.15
77639;BME280;66802;52.574;14.398;2023-08-07T15:43:27;100553.66;;;19.39;49.31
77639;BME280;66802;52.574;14.398;2023-08-07T15:45:53;100552.66;;;19.26;50.54
77639;BME280;66802;52.574;14.398;2023-08-07T15:48:19;100558.97;;;19.33;50.16